Aérodrome :
LOGIN :

S'inscrire | Disclaimer

   EN    FR    IT 

 










Légende :    VFR   VFR Marginal   IFR   IFR Intensif   IFR Très Intensif
Visi : 
Plafond : 
>= 8 km
>= 3000ft
5 à 8 km
1000 à 3000 ft
1500m à 5 km
500 à 1000 ft
800 à 1500m
200 à 500 ft
< 800m
< 200 ft
Symboles :   Orages  Brouillard  Fortes neiges  Fortes précipitations  Vent > 20 kt
SIGMETs :   Divers  Orages  Givrage  Turbulence  Onde Orograph.  Cendres Volcan.







- Altitude de l'aérodrome : 1860 ft
- Code IATA : GRX


LEGR - Granada

DERNIER METAR :
  • 291730Z 26008KT 230V290 9999 FEW025 BKN055 17/12 Q1013

METARs EXPIRÉS :
  • 291700Z 26009KT 220V300 9999 FEW025 SCT045 BKN075 17/12 Q1013
  • 291630Z 27004KT 200V340 9999 FEW025 SCT045 BKN075 18/12 Q1013
  • 291600Z 27004KT 220V350 9999 FEW020 SCT040 BKN075 18/13 Q1013
  • 291530Z 31003KT 260V010 9999 FEW020 BKN042 17/12 Q1013
  • 291500Z 32005KT 270V350 9999 FEW020 BKN042 16/13 Q1013

TAF TAF LEGR
Valide du 29 à 15h jusqu'au 30 à 15h UTC


291400Z 2915/3015 24010KT 9999 FEW020 BKN035 TX21/3015Z TN09/3006Z
BECMG 2920/2923 VRB02KT
BECMG 3007/3011 27010KT
Pas de NOTAMs connus pour ce terrain.
4 SIGMETs publiés pour la FIR Madrid (LECM) :
 
Annulation du SIGMET 3 
LECM SIGMET 6 VALID 291645/291730 LEVA
LECM MADRID FIR/UIR CNL SIGMET 3 VALID 291546/291730=
Orages noyés dans la masse
LECM SIGMET 5 VALID 291644/291830 LEVA
LECM MADRID FIR/UIR EMBD TS OBS AT 1644Z WI N3930 W00540 - N3830 W00540 - N39 W00230 - N3950 W00240 TOP FL250 MOV NE 10KT NC=
SIGMET 3  ANNULÉ :
Orages noyés dans la masse
LECM SIGMET 3 VALID 291546/291730 LEVA
LECM MADRID FIR/UIR EMBD TS OBS AT 1546Z WI N4130 W005 - N4230 W00350 - N4210 W00310 - N4050 W00410 TOP FL250 MOV NE 10KT NC=
Orages noyés dans la masse
LECM SIGMET 2 VALID 291542/291730 LEVA
LECM MADRID FIR/UIR EMBD TS OBS AT 1542Z WI N3810 W004 - N3730 W004 - N3740 W00220 - N39 W00210 TOP FL250 MOV NE 10KT NC=



MET'MAP, la Météo Aéronautique d'un coup d'oeil ! - Copyright ORBIFLY Décembre 2007 - Disclaimer

ORBIFLY MET'MAP TEAM :

Programmation & Développement : Alexandra Zaïnal
Conception & Développement : Baudouin d'Aumeries
Co-Programmation & Développement : Marc-Olivier Méhu
Soutien technique & logistique : Manuel Goepfert

Contact : metmap@orbifly.com




SOURCES & CREDITS :

   NOAA